logo
Rechercher aéroport 
image banner adimage banner adimage banner ad
image banner ad

SWDN - Dianópolis

Situé à Dianópolis, Brazil

ICAO - SWDN, IATA - DNO

Données fournies par Airmate  

Information générale

Coordonnées: S11°35'43" W46°50'52"
Élévation : 2415 feet MSL.
Variation magnétique : -22.033333333° East
Voir autres Aéroports à Tocatins

Données opérationnelles

Special qualification required
Heure actuelle UTC:
Heure actuelle locale:
Météo à : - ( 0 km )
METAR: OPLA 251625Z 27008KT 5000 HZ NSC 36/13 Q0999 NOSIG RMK QFE973 A29.51
Voir NOTAMs / SUP AIP / TFR affectant cet aéroport [VIEW]
Fréquences de communication: [VIEW]

Pistes:

Identifiant RWYQFULongueur (ft)Largeur (ft)SurfaceLDA (ft)
10498098ASPH
28498098ASPH

Coordonnées de l'aéroport

Adresse: Dianópolis Brazil

Vue satellite de SWDN